Latest Coastal Weather Observations for Edithburgh

IDS60701

Issued at 1:11 am CST Sunday 30 April 2017 (issued every 10 minutes, with the page automatically refreshed every 10 minutes)

About coastal observations | Map of coastal stations | Coastal observations for SA | Marine services | Other Formats
Station Details ID: 022046 Name: EDITHBURGH Lat: -35.11 Lon: 137.74 Height: 6.0 m
Data from the previous 72 hours. | See also: Recent months at Edithburgh
Date/Time
CST
Temp
°C
Wind Pressure Rain since
9am
mm
Weather Cloud Vis
km
Sea
Height
m
Swell
Dir  Spd
kts
Gust
kts
hPa Trend Height
m
Period
s
Dir
30/01:00am 14.9 WNW 3 3 1023.3 - 0.0 - - - - - - -
30/12:30am 14.9 WNW 2 3 1023.5 - 0.0 - - - - - - -
30/12:00am 14.9 WNW 3 3 1023.7 - 0.0 - - - - - - -
 
Date/Time
CST
Temp
°C
Wind Pressure Rain since
9am
mm
Weather Cloud Vis
km
Sea
Height
m
Swell
Dir  Spd
kts
Gust
kts
hPa Trend Height
m
Period
s
Dir
29/11:30pm 15.1 WNW 4 4 1023.9 - 0.0 - - - - - - -
29/11:00pm 15.2 WNW 4 5 1024.1 - 0.0 - - - - - - -
29/10:30pm 15.2 W 4 5 1024.4 - 0.0 - - - - - - -
29/10:00pm 15.1 NNW 5 6 1024.5 - 0.0 - - - - - - -
29/09:30pm 15.1 WNW 4 5 1024.7 - 0.0 - - - - - - -
29/09:00pm 14.9 NW 4 5 1024.7 - 0.0 - - - - - - -
29/08:30pm 14.6 WNW 3 4 1024.8 - 0.0 - - - - - - -
29/08:00pm 15.1 WNW 5 7 1024.7 - 0.0 - - - - - - -
29/07:30pm 15.4 WNW 5 7 1024.8 - 0.0 - - - - - - -
29/07:00pm 15.4 WNW 3 4 1024.8 - 0.0 - - - - - - -
29/06:30pm 15.9 W 4 6 1024.8 - 0.0 - - - - - - -
29/06:00pm 16.0 WNW 5 7 1024.5 - 0.0 - - - - - - -
29/05:30pm 16.5 WNW 6 7 1024.4 - 0.0 - - - - - - -
29/05:00pm 17.2 NNE 2 3 1024.3 - 0.0 - - - - - - -
29/04:30pm 17.5 NNE 3 3 1024.3 - 0.0 - - - - - - -
29/04:00pm 17.6 NE 3 4 1024.4 - 0.0 - - - - - - -
29/03:30pm 17.7 NE 3 4 1024.4 - 0.0 - - - - - - -
29/03:00pm 17.6 ENE 3 4 1024.6 - 0.0 - - - - - - -
29/02:30pm 17.7 ESE 3 5 1024.6 - 0.0 - - - - - - -
29/02:00pm 17.9 ESE 5 7 1024.5 - 0.0 - - - - - - -
29/01:30pm 18.7 N 4 7 1024.6 - 0.0 - - - - - - -
29/01:00pm 18.3 S 5 7 1024.9 - 0.0 - - - - - - -
29/12:30pm 18.7 SSW 6 9 1025.4 - 0.0 - - - - - - -
29/12:00pm 18.9 WSW 3 6 1026.0 - 0.0 - - - - - - -
29/11:30am 18.3 NW 3 7 1026.5 - 0.0 - - - - - - -
29/11:00am 18.1 W 5 7 1026.7 - 0.0 - - - - - - -
29/10:30am 17.9 NW 5 7 1026.6 - 0.0 - - - - - - -
29/10:00am 17.9 WNW 6 9 1026.7 - 0.0 - - - - - - -
29/09:30am 17.1 NW 6 7 1026.7 - 0.0 - - - - - - -
29/09:00am 16.5 NW 6 7 1026.6 - 0.2 - - - - - - -
29/08:30am 15.7 NW 3 4 1026.5 - 0.2 - - - - - - -
29/08:00am 14.8 NW 4 5 1026.4 - 0.2 - - - - - - -
29/07:30am 14.2 NW 4 5 1026.1 - 0.2 - - - - - - -
29/07:00am 13.6 NNW 4 5 1025.8 - 0.2 - - - - - - -
29/06:30am 13.6 NW 4 5 1025.6 - 0.2 - - - - - - -
29/06:00am 13.6 NW 4 5 1025.5 - 0.2 - - - - - - -
29/05:30am 13.9 NW 4 5 1025.5 - 0.2 - - - - - - -
29/05:00am 13.8 NW 4 5 1025.3 - 0.2 - - - - - - -
29/04:30am 13.7 NW 3 4 1025.3 - 0.2 - - - - - - -
29/04:00am 13.9 WNW 4 5 1025.3 - 0.2 - - - - - - -
29/03:30am 14.2 WNW 5 7 1025.3 - 0.2 - - - - - - -
29/03:00am 14.4 W 4 5 1025.4 - 0.2 - - - - - - -
29/02:30am 14.2 W 3 4 1025.7 - 0.2 - - - - - - -
29/02:00am 13.8 WNW 4 5 1025.8 - 0.2 - - - - - - -
29/01:30am 13.3 WNW 4 5 1025.8 - 0.2 - - - - - - -
29/01:00am 13.5 WNW 4 5 1025.8 - 0.2 - - - - - - -
29/12:30am 13.2 WNW 5 6 1026.0 - 0.2 - - - - - - -
29/12:00am 13.3 W 4 6 1026.4 - 0.2 - - - - - - -
 
Date/Time
CST
Temp
°C
Wind Pressure Rain since
9am
mm
Weather Cloud Vis
km
Sea
Height
m
Swell
Dir  Spd
kts
Gust
kts
hPa Trend Height
m
Period
s
Dir
28/11:30pm 13.6 N 1 2 1026.4 - 0.2 - - - - - - -
28/11:00pm 13.7 WNW 2 3 1026.6 - 0.2 - - - - - - -
28/10:30pm 13.9 WNW 9 15 1027.0 - 0.2 - - - - - - -
28/10:00pm 14.1 WNW 7 12 1027.1 - 0.0 - - - - - - -
28/09:30pm 14.5 W 4 6 1027.1 - 0.0 - - - - - - -
28/09:00pm 15.7 WSW 5 7 1026.9 - 0.0 - - - - - - -
28/08:30pm 15.6 WSW 6 11 1026.8 - 0.0 - - - - - - -
28/08:00pm 15.1 W 8 10 1026.8 - 0.0 - - - - - - -
28/07:30pm 15.5 WSW 7 9 1026.8 - 0.0 - - - - - - -
28/07:00pm 14.9 W 3 3 1026.6 - 0.0 - - - - - - -
28/06:30pm 15.6 WSW 7 11 1026.7 - 0.0 - - - - - - -
28/06:00pm 16.3 WSW 7 11 1026.5 - 0.0 - - - - - - -
28/05:30pm 16.8 WSW 6 8 1026.3 - 0.0 - - - - - - -
28/05:00pm 16.9 WSW 4 7 1026.4 - 0.0 - - - - - - -
28/04:30pm 17.0 SW 5 8 1026.4 - 0.0 - - - - - - -
28/04:00pm 17.2 SW 8 12 1026.5 - 0.0 - - - - - - -
28/03:30pm 17.5 SW 8 11 1026.5 - 0.0 - - - - - - -
28/03:00pm 18.0 SW 6 11 1026.5 - 0.0 - - - - - - -
28/02:30pm 18.1 WSW 6 11 1026.7 - 0.0 - - - - - - -
28/02:00pm 17.2 WSW 3 5 1026.9 - 0.0 - - - - - - -
28/01:30pm 16.8 SW 9 12 1027.2 - 0.0 - - - - - - -
28/01:00pm 18.9 WSW 8 11 1027.2 - 0.0 - - - - - - -
28/12:30pm 17.9 WSW 9 13 1027.6 - 0.0 - - - - - - -
28/12:00pm 18.0 SW 9 13 1028.0 - 0.0 - - - - - - -
28/11:30am 18.2 WSW 7 12 1028.3 - 0.0 - - - - - - -
28/11:00am 18.4 SW 6 8 1028.4 - 0.0 - - - - - - -
28/10:30am 16.9 W 7 11 1028.5 - 0.0 - - - - - - -
28/10:00am 17.0 W 6 9 1028.5 - 0.0 - - - - - - -
28/09:30am 16.1 WNW 6 9 1028.4 - 0.0 - - - - - - -
28/09:00am 15.4 WNW 6 9 1028.3 - 0.2 - - - - - - -
28/08:30am 14.4 NW 5 7 1028.1 - 0.2 - - - - - - -
28/08:00am 13.5 NW 6 8 1028.0 - 0.2 - - - - - - -
28/07:30am 12.4 NW 5 7 1027.6 - 0.2 - - - - - - -
28/07:00am 12.6 WNW 5 6 1027.4 - 0.2 - - - - - - -
28/06:30am 12.6 WNW 8 12 1027.3 - 0.2 - - - - - - -
28/06:00am 14.1 W 7 8 1027.3 - 0.2 - - - - - - -
28/05:30am 13.1 WNW 6 7 1027.2 - 0.2 - - - - - - -
28/05:00am 12.6 WNW 7 8 1027.1 - 0.2 - - - - - - -
28/04:30am 12.2 WNW 6 9 1026.9 - 0.2 - - - - - - -
28/04:00am 12.7 WNW 6 7 1026.7 - 0.2 - - - - - - -
28/03:30am 12.8 WNW 5 7 1026.8 - 0.2 - - - - - - -
28/03:00am 12.9 WNW 3 6 1026.9 - 0.2 - - - - - - -
28/02:30am 12.7 NW 8 9 1026.9 - 0.2 - - - - - - -
28/02:00am 12.8 WNW 6 8 1027.0 - 0.2 - - - - - - -
28/01:30am 13.5 WNW 8 10 1027.2 - 0.2 - - - - - - -
28/01:00am 12.9 WNW 6 8 1027.4 - 0.2 - - - - - - -
28/12:30am 12.6 WNW 6 7 1027.4 - 0.2 - - - - - - -
28/12:00am 12.6 WNW 6 7 1027.5 - 0.2 - - - - - - -
 
Date/Time
CST
Temp
°C
Wind Pressure Rain since
9am
mm
Weather Cloud Vis
km
Sea
Height
m
Swell
Dir  Spd
kts
Gust
kts
hPa Trend Height
m
Period
s
Dir
27/11:30pm 12.1 WNW 7 9 1027.6 - 0.2 - - - - - - -
27/11:00pm 12.3 NW 8 9 1027.7 - 0.2 - - - - - - -
27/10:30pm 12.8 WNW 7 8 1027.8 - 0.2 - - - - - - -
27/10:00pm 12.9 NW 5 7 1027.8 - 0.2 - - - - - - -
27/09:30pm 12.8 NW 4 5 1027.8 - 0.2 - - - - - - -
27/09:00pm 12.1 NW 5 7 1027.8 - 0.2 - - - - - - -
27/08:30pm 12.9 NNW 5 6 1027.8 - 0.2 - - - - - - -
27/08:00pm 13.2 NW 4 6 1027.8 - 0.2 - - - - - - -
27/07:30pm 12.5 NW 3 4 1027.5 - 0.0 - - - - - - -
27/07:00pm 13.7 WNW 4 6 1027.4 - 0.0 - - - - - - -
27/06:30pm 13.9 WNW 6 8 1027.3 - 0.0 - - - - - - -
27/06:00pm 14.2 WSW 4 5 1027.2 - 0.0 - - - - - - -
27/05:30pm 14.1 W 4 5 1027.1 - 0.0 - - - - - - -
27/05:00pm 14.3 WSW 10 15 1027.0 - 0.0 - - - - - - -
27/04:30pm 15.4 SW 7 17 1027.0 - 0.0 - - - - - - -
27/04:00pm 15.1 W 8 12 1027.1 - 0.0 - - - - - - -
27/03:30pm 16.3 WSW 10 14 1026.9 - 0.0 - - - - - - -
27/03:00pm 18.1 WSW 10 15 1026.7 - 0.0 - - - - - - -
27/02:30pm 16.7 WSW 9 14 1026.8 - 0.0 - - - - - - -
27/02:00pm 17.1 SW 9 13 1026.8 - 0.0 - - - - - - -
27/01:30pm 17.7 SW 10 14 1026.6 - 0.0 - - - - - - -
27/01:00pm 17.4 SW 9 12 1026.9 - 0.0 - - - - - - -
27/12:30pm 16.8 SW 10 14 1027.5 - 0.0 - - - - - - -
27/12:00pm 16.9 SSW 8 12 1027.9 - 0.0 - - - - - - -
27/11:30am 17.1 SW 7 11 1028.3 - 0.0 - - - - - - -
27/11:00am 16.9 SW 8 11 1028.6 - 0.0 - - - - - - -
27/10:30am 17.4 SW 10 13 1028.8 - 0.0 - - - - - - -
27/10:00am 16.5 SW 8 11 1029.0 - 0.0 - - - - - - -
27/09:30am 15.4 SW 9 12 1029.1 - 0.0 - - - - - - -
27/09:00am 15.2 SW 5 10 1029.0 - 0.0 - - - - - - -
27/08:30am 14.3 WNW 5 6 1028.5 - 0.0 - - - - - - -
27/08:00am 15.2 W 5 7 1028.2 - 0.0 - - - - - - -
27/07:30am 12.8 WSW 4 5 1027.8 - 0.0 - - - - - - -
27/07:00am 13.1 SW 7 10 1027.6 - 0.0 - - - - - - -
27/06:30am 13.4 SW 7 11 1027.3 - 0.0 - - - - - - -
27/06:00am 12.4 WSW 6 9 1027.2 - 0.0 - - - - - - -
27/05:30am 13.1 SW 6 9 1026.9 - 0.0 - - - - - - -
27/05:00am 13.5 SW 6 8 1026.6 - 0.0 - - - - - - -
27/04:30am 13.8 SW 9 11 1026.4 - 0.0 - - - - - - -
27/04:00am 13.9 SSW 7 11 1026.2 - 0.0 - - - - - - -
27/03:30am 13.9 SSW 7 9 1026.2 - 0.0 - - - - - - -
27/03:00am 13.9 SW 9 13 1026.3 - 0.0 - - - - - - -
27/02:30am 13.9 SSW 8 12 1026.3 - 0.0 - - - - - - -
27/02:00am 12.8 SSW 6 8 1026.5 - 0.0 - - - - - - -
27/01:30am 12.9 SSW 8 11 1026.6 - 0.0 - - - - - - -

Other Formats:

Comma delimited format used in spreadsheet applications
http://www.bom.gov.au/fwo/IDS60701/IDS60701.94809.axf

JavaScript Object Notation format (JSON) in row-major order
http://www.bom.gov.au/fwo/IDS60701/IDS60701.94809.json